createdAt,value
2022-09-22T00:00:28.392Z,56.93
2022-09-22T00:01:28.449Z,56.48
2022-09-22T00:02:28.447Z,56.77
2022-09-22T00:03:28.371Z,56.81
2022-09-22T00:04:28.362Z,56.61
2022-09-22T00:05:28.367Z,57.01
2022-09-22T00:06:28.374Z,56.47
2022-09-22T00:07:28.339Z,56.60
2022-09-22T00:08:28.333Z,56.75
2022-09-22T00:09:28.324Z,58.02
2022-09-22T00:10:28.320Z,57.15
2022-09-22T00:11:28.338Z,56.72
2022-09-22T00:12:28.301Z,57.29
2022-09-22T00:13:28.299Z,56.45
2022-09-22T00:14:28.286Z,56.57
2022-09-22T00:15:28.278Z,60.30
2022-09-22T00:16:28.434Z,57.16
2022-09-22T00:17:28.267Z,59.65
2022-09-22T00:18:28.259Z,57.50
2022-09-22T00:19:28.256Z,56.67
2022-09-22T00:20:28.241Z,56.42
2022-09-22T00:21:28.247Z,56.22
2022-09-22T00:22:28.258Z,56.22
2022-09-22T00:23:28.220Z,56.50
2022-09-22T00:24:28.212Z,56.47
2022-09-22T00:25:28.207Z,52.93
2022-09-22T00:26:28.195Z,44.97
2022-09-22T00:27:28.218Z,50.59
2022-09-22T00:28:28.181Z,52.40
2022-09-22T00:29:28.171Z,46.38
2022-09-22T00:30:28.169Z,41.05
2022-09-22T00:31:28.210Z,43.81
2022-09-22T00:32:28.177Z,46.33
2022-09-22T00:33:28.138Z,50.56
2022-09-22T00:34:28.138Z,52.60
2022-09-22T00:35:28.133Z,47.57
2022-09-22T00:36:28.116Z,46.30
2022-09-22T00:37:28.135Z,47.87
2022-09-22T00:38:28.105Z,49.66
2022-09-22T00:39:28.097Z,55.08
2022-09-22T00:40:28.146Z,42.97
2022-09-22T00:41:28.078Z,44.43
2022-09-22T00:42:28.101Z,51.85
2022-09-22T00:43:28.067Z,47.49
2022-09-22T00:44:28.055Z,52.01
2022-09-22T00:45:28.055Z,49.63
2022-09-22T00:46:28.145Z,46.22
2022-09-22T00:47:28.056Z,44.63
2022-09-22T00:48:28.031Z,44.33
2022-09-22T00:49:28.016Z,42.92
2022-09-22T00:50:28.018Z,51.52
2022-09-22T00:51:27.999Z,48.81
2022-09-22T00:52:28.011Z,46.55
2022-09-22T00:53:27.985Z,42.75
2022-09-22T00:54:27.977Z,50.32
2022-09-22T00:55:27.967Z,48.40
2022-09-22T00:56:27.970Z,45.37
2022-09-22T00:57:28.000Z,46.83
2022-09-22T00:58:27.952Z,48.02
2022-09-22T00:59:27.939Z,48.57
2022-09-22T01:00:27.966Z,48.62
2022-09-22T01:01:27.978Z,41.81
2022-09-22T01:02:27.947Z,41.14
2022-09-22T01:03:29.849Z,41.30
2022-09-22T01:04:28.901Z,41.81
2022-09-22T01:05:27.894Z,41.62
2022-09-22T01:06:27.888Z,46.28
2022-09-22T01:07:27.905Z,45.85
2022-09-22T01:08:27.876Z,55.91
2022-09-22T01:09:27.860Z,49.09
2022-09-22T01:10:27.855Z,50.13
2022-09-22T01:11:27.852Z,53.86
2022-09-22T01:12:27.869Z,62.15
2022-09-22T01:13:27.833Z,50.24
2022-09-22T01:14:27.830Z,56.09
2022-09-22T01:15:27.822Z,55.92
2022-09-22T01:16:27.866Z,54.69
2022-09-22T01:17:27.827Z,56.75
2022-09-22T01:18:27.804Z,58.91
2022-09-22T01:19:27.789Z,57.43
2022-09-22T01:20:27.778Z,57.77
2022-09-22T01:21:27.773Z,60.01
2022-09-22T01:22:27.789Z,56.72
2022-09-22T01:23:28.764Z,57.48
2022-09-22T01:24:27.756Z,57.53
2022-09-22T01:25:27.749Z,57.20
2022-09-22T01:26:27.731Z,57.38
2022-09-22T01:27:27.775Z,58.12
2022-09-22T01:28:27.725Z,57.87
2022-09-22T01:29:27.713Z,57.78
2022-09-22T01:30:27.708Z,57.58
2022-09-22T01:31:27.740Z,58.35
2022-09-22T01:32:27.733Z,57.02
2022-09-22T01:33:27.690Z,59.04
2022-09-22T01:34:27.681Z,58.63
2022-09-22T01:35:27.668Z,60.15
2022-09-22T01:36:27.660Z,57.62
2022-09-22T01:37:27.677Z,58.18
2022-09-22T01:38:27.644Z,61.79
2022-09-22T01:39:27.646Z,61.63
2022-09-22T01:40:27.736Z,60.02
2022-09-22T01:41:27.623Z,56.56
2022-09-22T01:42:27.645Z,56.81
2022-09-22T01:43:27.614Z,56.74
2022-09-22T01:44:27.621Z,56.72
2022-09-22T01:45:27.592Z,56.42
2022-09-22T01:46:27.626Z,56.94
2022-09-22T01:47:27.603Z,56.25
2022-09-22T01:48:27.571Z,59.49
2022-09-22T01:49:27.565Z,58.24
2022-09-22T01:50:27.564Z,56.04
2022-09-22T01:51:27.548Z,56.61
2022-09-22T01:52:27.573Z,55.96
2022-09-22T01:53:27.530Z,56.17
2022-09-22T01:54:27.532Z,57.41
2022-09-22T01:55:27.520Z,56.78
2022-09-22T01:56:27.503Z,56.69
2022-09-22T01:57:27.533Z,60.00
2022-09-22T01:58:27.497Z,57.13
2022-09-22T01:59:27.495Z,53.48
2022-09-22T02:00:27.482Z,45.71
2022-09-22T02:01:27.537Z,54.25
2022-09-22T02:02:27.523Z,57.19
2022-09-22T02:03:27.483Z,55.11
2022-09-22T02:04:27.450Z,55.21
2022-09-22T02:05:27.443Z,53.64
2022-09-22T02:06:27.435Z,57.29
2022-09-22T02:07:27.430Z,44.97
2022-09-22T02:08:27.451Z,40.71
2022-09-22T02:09:27.416Z,54.17
2022-09-22T02:10:27.409Z,49.55
2022-09-22T02:11:27.405Z,55.58
2022-09-22T02:12:27.396Z,52.37
2022-09-22T02:13:27.427Z,43.11
2022-09-22T02:14:27.386Z,47.80
2022-09-22T02:15:27.374Z,52.06
2022-09-22T02:16:27.362Z,57.57
2022-09-22T02:17:29.680Z,53.96
2022-09-22T02:18:28.408Z,55.93
2022-09-22T02:19:27.368Z,54.08
2022-09-22T02:20:27.364Z,56.94
2022-09-22T02:21:27.391Z,56.11
2022-09-22T02:22:27.375Z,57.64
2022-09-22T02:23:27.356Z,60.41
2022-09-22T02:24:27.315Z,58.99
2022-09-22T02:25:27.299Z,57.78
2022-09-22T02:26:27.296Z,58.73
2022-09-22T02:27:27.278Z,59.47
2022-09-22T02:28:27.307Z,59.35
2022-09-22T02:29:27.265Z,59.54
2022-09-22T02:30:27.263Z,61.26
2022-09-22T02:31:27.322Z,59.69
2022-09-22T02:32:27.244Z,60.08
2022-09-22T02:33:27.267Z,59.49
2022-09-22T02:34:27.236Z,59.46
2022-09-22T02:35:27.228Z,60.04
2022-09-22T02:36:27.217Z,61.34
2022-09-22T02:37:27.212Z,61.14
2022-09-22T02:38:27.229Z,59.81
2022-09-22T02:39:27.197Z,59.49
2022-09-22T02:40:27.235Z,59.25
2022-09-22T02:41:27.176Z,60.53
2022-09-22T02:42:27.172Z,51.24
2022-09-22T02:43:27.185Z,47.71
2022-09-22T02:44:27.155Z,54.71
2022-09-22T02:45:27.150Z,58.72
2022-09-22T02:46:27.226Z,56.67
2022-09-22T02:47:27.131Z,57.94
2022-09-22T02:48:27.156Z,54.43
2022-09-22T02:49:27.121Z,56.63
2022-09-22T02:50:27.115Z,56.90
2022-09-22T02:51:27.105Z,58.21
2022-09-22T02:52:27.091Z,59.48
2022-09-22T02:53:27.114Z,58.85
2022-09-22T02:54:27.086Z,62.97
2022-09-22T02:55:27.067Z,59.03
2022-09-22T02:56:27.060Z,58.90
2022-09-22T02:57:27.052Z,57.93
2022-09-22T02:58:27.071Z,58.49
2022-09-22T02:59:27.039Z,62.43
2022-09-22T03:00:27.030Z,59.46
2022-09-22T03:01:27.085Z,58.46
2022-09-22T03:02:27.017Z,58.21
2022-09-22T03:03:27.031Z,57.45
2022-09-22T03:04:27.047Z,58.43
2022-09-22T03:05:26.992Z,58.07
2022-09-22T03:06:26.983Z,58.27
2022-09-22T03:07:26.981Z,58.66
2022-09-22T03:08:26.999Z,50.31
2022-09-22T03:09:26.962Z,46.32
2022-09-22T03:10:26.961Z,51.88
2022-09-22T03:11:26.954Z,50.10
2022-09-22T03:12:26.943Z,55.52
2022-09-22T03:13:27.033Z,55.67
2022-09-22T03:14:26.933Z,60.20
2022-09-22T03:15:27.338Z,56.39
2022-09-22T03:16:27.909Z,58.02
2022-09-22T03:17:26.900Z,59.05
2022-09-22T03:18:26.919Z,58.54
2022-09-22T03:19:26.886Z,58.60
2022-09-22T03:20:26.881Z,58.72
2022-09-22T03:21:26.881Z,59.34
2022-09-22T03:22:26.865Z,58.59
2022-09-22T03:23:26.880Z,58.51
2022-09-22T03:24:26.850Z,59.30
2022-09-22T03:25:26.846Z,59.26
2022-09-22T03:26:26.843Z,53.05
2022-09-22T03:27:26.833Z,53.38
2022-09-22T03:28:26.863Z,52.51
2022-09-22T03:29:26.819Z,56.21
2022-09-22T03:30:26.805Z,56.45
2022-09-22T03:31:26.807Z,56.31
2022-09-22T03:32:26.793Z,59.39
2022-09-22T03:33:26.806Z,59.46
2022-09-22T03:34:26.780Z,60.51
2022-09-22T03:35:26.769Z,58.81
2022-09-22T03:36:26.762Z,58.96
2022-09-22T03:37:26.756Z,59.06
2022-09-22T03:38:26.773Z,59.08
2022-09-22T03:39:26.746Z,58.63
2022-09-22T03:40:26.784Z,59.67
2022-09-22T03:41:26.732Z,62.54
2022-09-22T03:42:26.717Z,59.19
2022-09-22T03:43:26.740Z,58.76
2022-09-22T03:44:26.701Z,59.83
2022-09-22T03:46:01.019Z,59.88
2022-09-22T03:46:26.726Z,60.39
2022-09-22T03:47:26.683Z,60.84
2022-09-22T03:48:26.703Z,60.04
2022-09-22T03:49:26.751Z,60.23
2022-09-22T03:50:26.660Z,60.34
2022-09-22T03:51:26.658Z,60.03
2022-09-22T03:52:26.653Z,59.49
2022-09-22T03:53:26.680Z,54.21
2022-09-22T03:54:27.631Z,53.59
2022-09-22T03:55:26.630Z,55.66
2022-09-22T03:56:26.611Z,57.64
2022-09-22T03:57:26.602Z,57.86
2022-09-22T03:58:26.605Z,59.09
2022-09-22T03:59:26.614Z,59.51
2022-09-22T04:00:27.586Z,57.05
2022-09-22T04:01:26.646Z,61.75
2022-09-22T04:02:26.619Z,59.28
2022-09-22T04:03:26.595Z,58.31
2022-09-22T04:04:26.558Z,58.11
2022-09-22T04:05:26.545Z,58.32
2022-09-22T04:06:26.549Z,59.14
2022-09-22T04:07:26.534Z,57.96
2022-09-22T04:08:26.532Z,57.05
2022-09-22T04:09:26.550Z,59.98
2022-09-22T04:10:26.516Z,59.35
2022-09-22T04:11:26.503Z,57.60
2022-09-22T04:12:26.499Z,53.41
2022-09-22T04:13:26.490Z,55.86
2022-09-22T04:14:26.504Z,54.66
2022-09-22T04:15:26.486Z,57.67
2022-09-22T04:16:26.526Z,58.95
2022-09-22T04:17:26.464Z,60.43
2022-09-22T04:18:26.467Z,59.92
2022-09-22T04:19:26.489Z,62.12
2022-09-22T04:20:26.437Z,59.92
2022-09-22T04:21:26.471Z,58.23
2022-09-22T04:22:26.424Z,58.39
2022-09-22T04:23:26.430Z,60.28
2022-09-22T04:24:26.443Z,59.41
2022-09-22T04:25:26.408Z,62.01
2022-09-22T04:26:26.400Z,60.82
2022-09-22T04:27:26.389Z,61.11
2022-09-22T04:28:26.405Z,61.34
2022-09-22T04:29:26.406Z,60.80
2022-09-22T04:30:26.413Z,61.03
2022-09-22T04:31:26.363Z,59.71
2022-09-22T04:32:26.367Z,60.52
2022-09-22T04:33:26.343Z,60.38
2022-09-22T04:34:26.364Z,59.78
2022-09-22T04:35:26.331Z,58.76
2022-09-22T04:36:26.322Z,59.92
2022-09-22T04:37:26.317Z,59.97
2022-09-22T04:38:26.307Z,59.33
2022-09-22T04:39:26.334Z,60.15
2022-09-22T04:40:26.339Z,59.98
2022-09-22T04:41:26.291Z,60.32
2022-09-22T04:42:26.280Z,59.16
2022-09-22T04:43:26.267Z,55.99
2022-09-22T04:44:26.284Z,56.94
2022-09-22T04:45:26.255Z,57.99
2022-09-22T04:46:26.363Z,61.55
2022-09-22T04:47:26.256Z,60.45
2022-09-22T04:48:26.233Z,60.38
2022-09-22T04:49:26.243Z,62.35
2022-09-22T04:50:26.216Z,59.13
2022-09-22T04:51:26.213Z,60.33
2022-09-22T04:52:26.209Z,59.91
2022-09-22T04:53:26.200Z,61.38
2022-09-22T04:54:26.227Z,59.12
2022-09-22T04:55:26.182Z,60.10
2022-09-22T04:56:26.180Z,59.68
2022-09-22T04:57:26.162Z,60.33
2022-09-22T04:58:26.159Z,59.89
2022-09-22T04:59:26.189Z,55.06
2022-09-22T05:00:26.162Z,55.55
2022-09-22T05:01:26.191Z,55.77
2022-09-22T05:02:26.134Z,59.64
2022-09-22T05:03:26.165Z,59.10
2022-09-22T05:04:26.151Z,61.33
2022-09-22T05:05:26.118Z,61.00
2022-09-22T05:06:26.102Z,58.34
2022-09-22T05:07:26.103Z,60.05
2022-09-22T05:08:26.089Z,60.08
2022-09-22T05:09:26.085Z,59.32
2022-09-22T05:10:26.102Z,59.31
2022-09-22T05:11:26.065Z,60.02
2022-09-22T05:12:26.088Z,59.54
2022-09-22T05:13:26.050Z,62.50
2022-09-22T05:14:26.606Z,59.36
2022-09-22T05:15:27.064Z,58.20
2022-09-22T05:16:26.150Z,55.84
2022-09-22T05:17:26.055Z,61.65
2022-09-22T05:18:26.015Z,58.02
2022-09-22T05:19:26.004Z,59.28
2022-09-22T05:20:26.030Z,58.90
2022-09-22T05:21:25.994Z,60.64
2022-09-22T05:22:25.992Z,63.25
2022-09-22T05:23:25.979Z,60.39
2022-09-22T05:24:25.969Z,59.37
2022-09-22T05:25:25.985Z,62.07
2022-09-22T05:26:25.954Z,61.38
2022-09-22T05:27:25.959Z,63.09
2022-09-22T05:28:25.947Z,60.61
2022-09-22T05:29:28.021Z,60.71
2022-09-22T05:30:26.931Z,60.94
2022-09-22T05:31:25.963Z,61.50
2022-09-22T05:32:25.913Z,61.01
2022-09-22T05:33:25.910Z,61.03
2022-09-22T05:34:25.982Z,60.79
2022-09-22T05:35:25.934Z,61.18
2022-09-22T05:36:25.990Z,57.17
2022-09-22T05:37:25.887Z,58.66
2022-09-22T05:38:25.870Z,58.59
2022-09-22T05:39:25.871Z,59.71
2022-09-22T05:40:25.918Z,58.23
2022-09-22T05:41:25.850Z,60.74
2022-09-22T05:42:25.837Z,59.03
2022-09-22T05:43:25.831Z,59.81
2022-09-22T05:44:25.828Z,60.44
2022-09-22T05:45:25.904Z,59.43
2022-09-22T05:46:25.815Z,60.06
2022-09-22T05:47:25.803Z,62.22
2022-09-22T05:48:30.337Z,58.19
2022-09-22T05:49:27.789Z,57.84
2022-09-22T05:50:25.805Z,56.90
2022-09-22T05:51:25.779Z,57.19
2022-09-22T05:52:25.772Z,57.79
2022-09-22T05:53:25.762Z,59.05
2022-09-22T05:54:25.755Z,60.30
2022-09-22T05:55:25.770Z,59.62
2022-09-22T05:56:25.741Z,63.65
2022-09-22T05:57:25.750Z,60.71
2022-09-22T05:58:25.723Z,61.50
2022-09-22T05:59:25.719Z,58.81
2022-09-22T06:00:25.737Z,61.01
2022-09-22T06:01:25.791Z,60.26
2022-09-22T06:02:26.731Z,60.34
2022-09-22T06:03:26.692Z,59.40
2022-09-22T06:04:25.682Z,59.98
2022-09-22T06:05:25.721Z,61.60
2022-09-22T06:06:25.661Z,55.95
2022-09-22T06:07:25.656Z,53.38
2022-09-22T06:08:25.703Z,55.50
2022-09-22T06:09:25.651Z,58.57
2022-09-22T06:10:25.655Z,57.54
2022-09-22T06:11:25.632Z,60.37
2022-09-22T06:12:25.615Z,59.88
2022-09-22T06:13:25.633Z,57.95
2022-09-22T06:14:25.605Z,60.10
2022-09-22T06:15:25.632Z,59.81
2022-09-22T06:16:25.632Z,60.14
2022-09-22T06:17:25.593Z,60.83
2022-09-22T06:18:25.587Z,59.53
2022-09-22T06:19:25.586Z,61.82
2022-09-22T06:20:25.586Z,60.42
2022-09-22T06:21:25.544Z,62.01
2022-09-22T06:22:25.555Z,56.65
2022-09-22T06:23:25.535Z,57.30
2022-09-22T06:24:25.528Z,57.17
2022-09-22T06:25:25.567Z,59.12
2022-09-22T06:26:25.509Z,57.54
2022-09-22T06:27:25.516Z,57.90
2022-09-22T06:28:25.506Z,62.78
2022-09-22T06:29:25.508Z,60.58
2022-09-22T06:30:25.568Z,59.42
2022-09-22T06:31:25.565Z,59.04
2022-09-22T06:32:25.464Z,59.10
2022-09-22T06:33:25.459Z,61.33
2022-09-22T06:34:25.444Z,58.69
2022-09-22T06:35:25.473Z,59.25
2022-09-22T06:36:25.508Z,59.20
2022-09-22T06:37:25.432Z,60.50
2022-09-22T06:38:25.418Z,54.73
2022-09-22T06:39:25.412Z,58.11
2022-09-22T06:40:25.545Z,56.71
2022-09-22T06:41:25.396Z,56.34
2022-09-22T06:42:25.394Z,57.92
2022-09-22T06:43:25.377Z,62.09
2022-09-22T06:44:25.366Z,59.03
2022-09-22T06:45:25.441Z,59.42
2022-09-22T06:46:25.364Z,61.11
2022-09-22T06:47:25.350Z,59.20
2022-09-22T06:48:25.348Z,59.59
2022-09-22T06:49:25.338Z,59.47
2022-09-22T06:50:27.808Z,59.40
2022-09-22T06:51:25.314Z,59.88
2022-09-22T06:52:25.311Z,62.94
2022-09-22T06:53:27.530Z,59.43
2022-09-22T06:54:26.989Z,60.59
2022-09-22T06:55:25.311Z,62.34
2022-09-22T06:56:25.278Z,61.37
2022-09-22T06:57:25.283Z,59.72
2022-09-22T06:58:25.271Z,58.87
2022-09-22T06:59:25.275Z,59.77
2022-09-22T07:00:25.312Z,60.48
2022-09-22T07:01:25.318Z,60.71
2022-09-22T07:02:25.308Z,62.90
2022-09-22T07:03:25.237Z,61.11
2022-09-22T07:04:25.236Z,61.03
2022-09-22T07:05:25.243Z,61.43
2022-09-22T07:06:25.205Z,60.92
2022-09-22T07:07:25.208Z,61.08
2022-09-22T07:08:25.190Z,51.69
2022-09-22T07:09:25.188Z,57.79
2022-09-22T07:10:25.220Z,56.89
2022-09-22T07:11:25.158Z,54.40
2022-09-22T07:12:26.157Z,57.13
2022-09-22T07:13:25.151Z,58.88
2022-09-22T07:14:25.148Z,51.66
2022-09-22T07:15:25.198Z,57.46
2022-09-22T07:16:25.183Z,61.52
2022-09-22T07:17:25.137Z,55.55
2022-09-22T07:18:25.132Z,53.09
2022-09-22T07:19:25.111Z,56.20
2022-09-22T07:20:25.170Z,57.33
2022-09-22T07:21:25.116Z,51.84
2022-09-22T07:22:25.100Z,59.94
2022-09-22T07:23:25.094Z,55.63
2022-09-22T07:24:25.077Z,54.79
2022-09-22T07:25:25.066Z,57.56
2022-09-22T07:26:25.098Z,55.73
2022-09-22T07:27:25.057Z,54.36
2022-09-22T07:28:25.047Z,58.25
2022-09-22T07:29:25.065Z,58.83
2022-09-22T07:30:25.043Z,54.96
2022-09-22T07:31:28.617Z,55.00
2022-09-22T07:32:26.030Z,56.38
2022-09-22T07:33:25.014Z,55.40
2022-09-22T07:34:24.997Z,54.62
2022-09-22T07:35:24.997Z,54.29
2022-09-22T07:36:25.007Z,55.04
2022-09-22T07:37:24.979Z,57.74
2022-09-22T07:38:24.978Z,59.16
2022-09-22T07:39:24.978Z,57.08
2022-09-22T07:40:24.985Z,57.66
2022-09-22T07:41:24.982Z,55.50
2022-09-22T07:42:24.947Z,56.84
2022-09-22T07:43:24.931Z,58.23
2022-09-22T07:44:24.921Z,56.40
2022-09-22T07:45:24.917Z,55.41
2022-09-22T07:46:25.030Z,58.51
2022-09-22T07:47:24.954Z,57.96
2022-09-22T07:48:24.891Z,58.30
2022-09-22T07:49:24.910Z,60.13
2022-09-22T07:50:24.879Z,59.83
2022-09-22T07:51:24.898Z,59.96
2022-09-22T07:52:24.858Z,61.32
2022-09-22T07:53:24.862Z,60.60
2022-09-22T07:54:24.857Z,60.35
2022-09-22T07:55:24.846Z,59.61
2022-09-22T07:56:24.880Z,61.81
2022-09-22T07:57:24.825Z,59.62
2022-09-22T07:58:24.926Z,60.05
2022-09-22T07:59:24.819Z,59.44
2022-09-22T08:00:24.829Z,60.90
2022-09-22T08:01:24.839Z,60.19
2022-09-22T08:02:24.844Z,59.96
2022-09-22T08:03:24.776Z,59.87
2022-09-22T08:04:24.775Z,59.27
2022-09-22T08:05:24.775Z,59.37
2022-09-22T08:06:24.877Z,61.18
2022-09-22T08:07:24.751Z,59.99
2022-09-22T08:08:24.741Z,56.10
2022-09-22T08:09:24.769Z,60.38
2022-09-22T08:10:24.728Z,58.58
2022-09-22T08:11:24.738Z,56.72
2022-09-22T08:12:24.707Z,57.05
2022-09-22T08:13:24.705Z,59.07
2022-09-22T08:14:24.687Z,59.56
2022-09-22T08:15:27.148Z,59.57
2022-09-22T08:16:25.731Z,58.42
2022-09-22T08:17:24.674Z,60.10
2022-09-22T08:18:24.664Z,57.68
2022-09-22T08:19:24.660Z,58.23
2022-09-22T08:20:24.647Z,59.96
2022-09-22T08:21:24.676Z,60.42
2022-09-22T08:22:24.625Z,60.35
2022-09-22T08:23:24.626Z,62.12
2022-09-22T08:24:24.622Z,57.73
2022-09-22T08:25:24.613Z,59.12
2022-09-22T08:26:24.603Z,57.22
2022-09-22T08:27:24.639Z,57.46
2022-09-22T08:28:24.587Z,58.88
2022-09-22T08:29:24.638Z,59.16
2022-09-22T08:30:24.573Z,56.30
2022-09-22T08:31:24.624Z,56.33
2022-09-22T08:32:24.577Z,57.30
2022-09-22T08:33:24.557Z,50.19
2022-09-22T08:34:24.536Z,53.26
2022-09-22T08:35:24.528Z,55.08
2022-09-22T08:36:24.537Z,54.55
2022-09-22T08:37:24.536Z,49.02
2022-09-22T08:38:24.499Z,55.00
2022-09-22T08:39:24.506Z,55.82
2022-09-22T08:40:24.539Z,57.48
2022-09-22T08:41:24.482Z,55.17
2022-09-22T08:42:24.507Z,57.75
2022-09-22T08:43:24.468Z,59.23
2022-09-22T08:44:24.465Z,57.34
2022-09-22T08:45:26.971Z,55.65
2022-09-22T08:46:25.486Z,56.09
2022-09-22T08:47:24.460Z,57.43
2022-09-22T08:48:24.433Z,60.78
2022-09-22T08:49:24.436Z,56.82
2022-09-22T08:50:24.420Z,56.00
2022-09-22T08:51:24.411Z,54.76
2022-09-22T08:52:24.433Z,54.96
2022-09-22T08:53:24.400Z,55.72
2022-09-22T08:54:24.378Z,55.62
2022-09-22T08:55:24.376Z,58.73
2022-09-22T08:56:24.365Z,55.77
2022-09-22T08:57:24.385Z,57.38
2022-09-22T08:58:24.350Z,59.75
2022-09-22T08:59:24.341Z,57.21
2022-09-22T09:00:24.363Z,56.26
2022-09-22T09:01:24.407Z,56.46
2022-09-22T09:02:24.349Z,54.78
2022-09-22T09:03:24.317Z,57.73
2022-09-22T09:04:24.300Z,56.82
2022-09-22T09:05:24.289Z,56.84
2022-09-22T09:06:24.286Z,60.38
2022-09-22T09:07:24.317Z,57.67
2022-09-22T09:08:24.272Z,55.47
2022-09-22T09:09:24.260Z,56.77
2022-09-22T09:10:24.252Z,55.72
2022-09-22T09:12:25.263Z,57.89
2022-09-22T09:13:24.236Z,62.71
2022-09-22T09:14:24.227Z,58.70
2022-09-22T09:15:24.220Z,55.97
2022-09-22T09:16:24.242Z,56.32
2022-09-22T09:17:24.223Z,57.01
2022-09-22T09:18:24.193Z,58.58
2022-09-22T09:19:24.181Z,57.00
2022-09-22T09:20:24.175Z,56.13
2022-09-22T09:21:24.194Z,55.65
2022-09-22T09:22:24.184Z,56.07
2022-09-22T09:23:24.667Z,54.77
2022-09-22T09:25:27.900Z,55.61
2022-09-22T09:26:24.156Z,58.19
2022-09-22T09:27:24.167Z,59.30
2022-09-22T09:28:27.722Z,54.80
2022-09-22T09:29:25.118Z,54.71
2022-09-22T09:30:24.109Z,56.22
2022-09-22T09:31:24.139Z,59.71
2022-09-22T09:32:24.127Z,53.51
2022-09-22T09:33:24.092Z,54.88
2022-09-22T09:34:24.102Z,56.37
2022-09-22T09:35:24.080Z,60.05
2022-09-22T09:36:24.064Z,59.10
2022-09-22T09:37:24.103Z,55.70
2022-09-22T09:38:24.055Z,51.30
2022-09-22T09:39:24.046Z,59.54
2022-09-22T09:40:24.092Z,57.06
2022-09-22T09:41:24.030Z,57.07
2022-09-22T09:42:24.048Z,55.53
2022-09-22T09:43:24.013Z,60.94
2022-09-22T09:44:24.023Z,55.89
2022-09-22T09:45:24.025Z,54.90
2022-09-22T09:46:57.542Z,57.91
2022-09-22T09:47:23.982Z,62.34
2022-09-22T09:48:23.976Z,58.66
2022-09-22T09:49:23.980Z,55.84
2022-09-22T09:50:23.989Z,54.44
2022-09-22T09:51:23.977Z,60.75
2022-09-22T09:52:23.943Z,55.57
2022-09-22T09:53:23.942Z,52.72
2022-09-22T09:54:23.927Z,57.87
2022-09-22T09:55:26.564Z,57.86
2022-09-22T09:56:24.942Z,59.84
2022-09-22T09:57:31.095Z,55.84
2022-09-22T09:58:25.897Z,56.05
2022-09-22T09:59:23.898Z,53.72
2022-09-22T10:00:23.889Z,56.55
2022-09-22T10:01:23.933Z,54.74
2022-09-22T10:02:23.872Z,55.33
2022-09-22T10:03:23.907Z,56.22
2022-09-22T10:04:23.859Z,55.80
2022-09-22T10:05:23.848Z,57.35
2022-09-22T10:06:23.870Z,57.19
2022-09-22T10:07:23.868Z,56.69
2022-09-22T10:08:23.855Z,57.16
2022-09-22T10:09:23.863Z,56.18
2022-09-22T10:10:23.821Z,57.30
2022-09-22T10:11:23.832Z,58.02
2022-09-22T10:12:23.803Z,57.01
2022-09-22T10:13:23.850Z,57.65
2022-09-22T10:14:23.972Z,54.17
2022-09-22T10:15:23.771Z,57.36
2022-09-22T10:16:23.852Z,57.00
2022-09-22T10:17:23.790Z,57.59
2022-09-22T10:18:23.764Z,58.04
2022-09-22T10:19:24.734Z,56.14
2022-09-22T10:20:23.914Z,57.56
2022-09-22T10:21:23.744Z,58.76
2022-09-22T10:22:23.718Z,56.24
2022-09-22T10:23:23.703Z,58.82
2022-09-22T10:24:23.699Z,59.62
2022-09-22T10:25:23.694Z,57.35
2022-09-22T10:26:23.686Z,55.34
2022-09-22T10:27:23.703Z,54.76
2022-09-22T10:28:23.674Z,55.84
2022-09-22T10:29:23.660Z,56.45
2022-09-22T10:30:23.661Z,54.75
2022-09-22T10:31:23.699Z,51.90
2022-09-22T10:32:23.671Z,55.18
2022-09-22T10:33:23.628Z,53.13
2022-09-22T10:34:23.624Z,58.03
2022-09-22T10:35:23.618Z,55.32
2022-09-22T10:36:23.609Z,56.22
2022-09-22T10:37:23.625Z,53.67
2022-09-22T10:38:23.603Z,54.41
2022-09-22T10:39:23.587Z,55.20
2022-09-22T10:40:23.630Z,54.55
2022-09-22T10:41:24.607Z,55.84
2022-09-22T10:42:23.567Z,56.31
2022-09-22T10:43:23.555Z,56.69
2022-09-22T10:44:41.904Z,56.34
2022-09-22T10:45:25.540Z,52.91
2022-09-22T10:46:23.600Z,55.87
2022-09-22T10:47:26.949Z,55.70
2022-09-22T10:48:24.520Z,57.04
2022-09-22T10:49:23.508Z,55.69
2022-09-22T10:50:23.506Z,56.62
2022-09-22T10:51:23.518Z,55.80
2022-09-22T10:52:23.494Z,54.56
2022-09-22T10:53:23.478Z,52.63
2022-09-22T10:54:23.466Z,54.52
2022-09-22T10:55:23.462Z,55.52
2022-09-22T10:56:23.480Z,60.60
2022-09-22T10:57:24.447Z,54.31
2022-09-22T10:58:23.449Z,55.02
2022-09-22T10:59:23.429Z,52.31
2022-09-22T11:00:23.420Z,54.50
2022-09-22T11:01:23.485Z,53.36
2022-09-22T11:02:23.401Z,57.95
2022-09-22T11:03:23.394Z,62.41
2022-09-22T11:04:23.473Z,66.35
2022-09-22T11:05:23.384Z,64.03
2022-09-22T11:06:23.396Z,64.13
2022-09-22T11:07:23.367Z,58.78
2022-09-22T11:08:23.356Z,57.00
2022-09-22T11:09:23.346Z,53.91
2022-09-22T11:10:24.485Z,54.12
2022-09-22T11:11:23.366Z,57.95
2022-09-22T11:12:23.335Z,58.60
2022-09-22T11:13:23.324Z,57.34
2022-09-22T11:14:23.315Z,53.89
2022-09-22T11:15:23.343Z,55.42
2022-09-22T11:16:23.320Z,56.19
2022-09-22T11:17:23.287Z,56.07
2022-09-22T11:18:23.282Z,57.08
2022-09-22T11:19:23.281Z,57.56
2022-09-22T11:20:23.323Z,55.06
2022-09-22T11:21:23.303Z,54.21
2022-09-22T11:22:23.251Z,54.16
2022-09-22T11:23:23.248Z,54.02
2022-09-22T11:24:23.239Z,54.77
2022-09-22T11:25:23.243Z,54.03
2022-09-22T11:26:23.252Z,55.76
2022-09-22T11:27:23.208Z,55.95
2022-09-22T11:28:23.264Z,57.66
2022-09-22T11:29:23.200Z,57.82
2022-09-22T11:30:23.358Z,55.42
2022-09-22T11:31:23.204Z,56.22
2022-09-22T11:32:23.173Z,57.07
2022-09-22T11:33:23.157Z,57.88
2022-09-22T11:34:23.157Z,55.14
2022-09-22T11:35:23.148Z,57.34
2022-09-22T11:36:23.141Z,55.91
2022-09-22T11:37:23.154Z,56.79
2022-09-22T11:38:23.129Z,56.50
2022-09-22T11:39:23.114Z,54.84
2022-09-22T11:40:23.288Z,55.68
2022-09-22T11:41:23.097Z,57.07
2022-09-22T11:42:23.114Z,61.57
2022-09-22T11:43:23.085Z,55.41
2022-09-22T11:44:23.160Z,56.88
2022-09-22T11:45:24.071Z,59.16
2022-09-22T11:46:23.101Z,60.52
2022-09-22T11:47:23.077Z,57.22
2022-09-22T11:48:23.047Z,56.63
2022-09-22T11:49:23.060Z,53.37
2022-09-22T11:50:23.022Z,54.48
2022-09-22T11:51:23.021Z,54.42
2022-09-22T11:52:23.042Z,58.17
2022-09-22T11:53:23.012Z,57.75
2022-09-22T11:54:22.993Z,56.78
2022-09-22T11:55:22.989Z,56.30
2022-09-22T11:56:22.979Z,54.35
2022-09-22T11:57:22.999Z,56.64
2022-09-22T11:58:22.970Z,58.95
2022-09-22T11:59:22.959Z,56.80
2022-09-22T12:00:22.959Z,54.81
2022-09-22T12:01:22.947Z,55.14
2022-09-22T12:02:23.000Z,56.70
2022-09-22T12:03:23.023Z,55.06
2022-09-22T12:04:22.921Z,54.64
2022-09-22T12:05:22.920Z,54.77
2022-09-22T12:06:22.906Z,57.76
2022-09-22T12:07:22.922Z,52.42
2022-09-22T12:08:22.893Z,57.97
2022-09-22T12:09:22.884Z,60.14
2022-09-22T12:10:22.882Z,59.16
2022-09-22T12:11:22.893Z,58.95
2022-09-22T12:12:22.862Z,58.21
2022-09-22T12:13:22.853Z,54.59
2022-09-22T12:14:22.855Z,59.52
2022-09-22T12:15:22.848Z,56.26
2022-09-22T12:16:22.862Z,57.05
2022-09-22T12:17:23.645Z,54.74
2022-09-22T12:18:23.821Z,56.89
2022-09-22T12:19:22.821Z,59.09
2022-09-22T12:20:22.807Z,56.46
2022-09-22T12:21:22.826Z,57.77
2022-09-22T12:22:22.819Z,54.09
2022-09-22T12:23:22.781Z,55.54
2022-09-22T12:24:22.779Z,56.02
2022-09-22T12:25:37.693Z,55.76
2022-09-22T12:26:24.788Z,56.92
2022-09-22T12:27:22.750Z,57.73
2022-09-22T12:28:22.774Z,54.57
2022-09-22T12:29:22.753Z,56.37
2022-09-22T12:30:22.749Z,55.62
2022-09-22T12:31:22.752Z,57.43
2022-09-22T12:32:22.721Z,56.97
2022-09-22T12:33:22.781Z,57.65
2022-09-22T12:34:22.694Z,56.38
2022-09-22T12:35:23.754Z,57.86
2022-09-22T12:36:22.704Z,54.83
2022-09-22T12:37:22.674Z,56.10
2022-09-22T12:38:22.699Z,57.16
2022-09-22T12:39:22.659Z,56.73
2022-09-22T12:40:22.684Z,60.06
2022-09-22T12:41:22.645Z,55.72
2022-09-22T12:42:22.635Z,56.58
2022-09-22T12:43:22.651Z,60.62
2022-09-22T12:44:22.615Z,61.56
2022-09-22T12:45:22.620Z,55.93
2022-09-22T12:46:22.667Z,53.71
2022-09-22T12:47:22.624Z,57.17
2022-09-22T12:48:22.632Z,56.90
2022-09-22T12:49:22.583Z,57.36
2022-09-22T12:50:22.616Z,57.21
2022-09-22T12:51:22.565Z,57.32
2022-09-22T12:52:22.556Z,55.61
2022-09-22T12:53:22.580Z,58.13
2022-09-22T12:54:22.565Z,57.54